Time;durP1;ratioP1;P1;durP2;ratioP2;P2;SDS_P1;SDS_P2;PMS_P1;PMS_P2;Temp;Humidity;BMP_temperature;BMP_pressure;BME280_temperature;BME280_humidity;BME280_pressure;Samples;Min_cycle;Max_cycle;Signal;HPM_P1;HPM_P2
2023/10/11 00:00:33;;;;;;;10.30;7.60;;;11.80;99.90;;;;;;5016758;28;20727;-79
2023/10/11 00:03:05;;;;;;;14.77;7.97;;;11.80;99.90;;;;;;5015341;28;20381;-79
2023/10/11 00:05:40;;;;;;;11.40;8.07;;;11.80;99.90;;;;;;5016724;28;20216;-79
2023/10/11 00:08:08;;;;;;;15.30;10.10;;;11.70;99.90;;;;;;5014893;28;20233;-79
2023/10/11 00:10:42;;;;;;;11.83;10.20;;;11.70;99.90;;;;;;5015798;28;20291;-79
2023/10/11 00:13:11;;;;;;;11.43;10.23;;;11.70;99.90;;;;;;5013620;28;20229;-78
2023/10/11 00:15:38;;;;;;;10.33;7.37;;;11.60;99.90;;;;;;5016475;28;20196;-79
2023/10/11 00:18:05;;;;;;;10.57;8.03;;;11.60;99.90;;;;;;5016243;28;20199;-79
2023/10/11 00:20:46;;;;;;;11.13;7.90;;;11.70;99.90;;;;;;5016289;28;20210;-79
2023/10/11 00:23:14;;;;;;;10.63;7.10;;;11.70;99.90;;;;;;5023842;28;20860;-79
2023/10/11 00:25:44;;;;;;;12.70;7.40;;;11.60;99.90;;;;;;5016212;28;20680;-78
2023/10/11 00:28:13;;;;;;;10.90;7.93;;;11.60;99.90;;;;;;5008058;28;20688;-79
2023/10/11 00:30:40;;;;;;;9.60;7.67;;;11.60;99.90;;;;;;5014620;28;20559;-78
2023/10/11 00:33:08;;;;;;;10.33;8.23;;;11.60;99.90;;;;;;5013900;28;20235;-79
2023/10/11 00:35:44;;;;;;;12.30;10.43;;;11.60;99.90;;;;;;5014652;28;20195;-79
2023/10/11 00:38:14;;;;;;;12.20;10.23;;;11.50;99.90;;;;;;5015728;28;20206;-79
2023/10/11 00:40:43;;;;;;;10.47;7.80;;;11.50;99.90;;;;;;5014409;28;20206;-79
2023/10/11 00:43:16;;;;;;;10.47;8.10;;;11.50;99.90;;;;;;5014798;28;20590;-79
2023/10/11 00:45:44;;;;;;;12.40;7.40;;;11.50;99.90;;;;;;5013534;28;20203;-79
2023/10/11 00:48:13;;;;;;;8.27;7.27;;;11.50;99.90;;;;;;5013917;28;20704;-79
2023/10/11 00:50:40;;;;;;;11.93;8.43;;;11.50;99.90;;;;;;5014215;28;20817;-78
2023/10/11 00:53:09;;;;;;;12.13;10.67;;;11.50;99.90;;;;;;5014976;28;20222;-78
2023/10/11 00:55:36;;;;;;;11.03;9.90;;;11.40;99.90;;;;;;5014183;28;20255;-79
2023/10/11 00:58:05;;;;;;;13.83;10.03;;;11.50;99.90;;;;;;5013527;28;20254;-78
2023/10/11 01:00:36;;;;;;;11.13;9.37;;;11.50;99.90;;;;;;5014094;28;20204;-79
2023/10/11 01:03:08;;;;;;;12.87;9.60;;;11.40;99.90;;;;;;5013161;28;20234;-79
2023/10/11 01:05:43;;;;;;;13.73;9.20;;;11.40;99.90;;;;;;5012528;28;20203;-79
2023/10/11 01:08:11;;;;;;;10.83;9.40;;;11.40;99.90;;;;;;5013783;28;20201;-79
2023/10/11 01:10:38;;;;;;;10.67;9.17;;;11.40;99.90;;;;;;5013808;28;20299;-79
2023/10/11 01:13:06;;;;;;;13.73;10.07;;;11.40;99.90;;;;;;5013858;28;20223;-79
2023/10/11 01:15:33;;;;;;;13.37;9.90;;;11.30;99.90;;;;;;5013843;28;20195;-79
2023/10/11 01:18:00;;;;;;;12.97;10.20;;;11.30;99.90;;;;;;5013578;28;20206;-79
2023/10/11 01:20:31;;;;;;;11.37;8.80;;;11.30;99.90;;;;;;5013477;28;20202;-79
2023/10/11 01:22:59;;;;;;;10.07;7.87;;;11.30;99.90;;;;;;5013842;28;20247;-78
2023/10/11 01:25:26;;;;;;;12.40;7.90;;;11.30;99.90;;;;;;5013561;28;20191;-79
2023/10/11 01:27:53;;;;;;;11.43;7.53;;;11.30;99.90;;;;;;5014776;28;20207;-78
2023/10/11 01:30:19;;;;;;;12.43;10.13;;;11.30;99.90;;;;;;5015151;28;20195;-78
2023/10/11 01:32:48;;;;;;;11.87;10.27;;;11.40;99.90;;;;;;5013207;28;20227;-79
2023/10/11 01:35:19;;;;;;;11.00;9.70;;;11.40;99.90;;;;;;5013408;28;20301;-79
2023/10/11 01:37:48;;;;;;;12.90;10.17;;;11.40;99.90;;;;;;5013340;28;20202;-79
2023/10/11 01:40:21;;;;;;;11.40;10.07;;;11.30;99.90;;;;;;5013326;28;20199;-79
2023/10/11 01:42:49;;;;;;;13.50;9.70;;;11.30;99.90;;;;;;5014632;28;20239;-79
2023/10/11 01:45:17;;;;;;;10.47;9.13;;;11.30;99.90;;;;;;5013074;28;20191;-78
2023/10/11 01:47:47;;;;;;;11.87;9.70;;;11.30;99.90;;;;;;5013052;28;20217;-79
2023/10/11 01:50:15;;;;;;;10.47;8.80;;;11.30;99.90;;;;;;5014456;28;20202;-79
2023/10/11 01:52:42;;;;;;;10.30;9.20;;;11.30;99.90;;;;;;5013038;28;20607;-79
2023/10/11 01:55:11;;;;;;;9.07;8.17;;;11.30;99.90;;;;;;5012808;28;20314;-78
2023/10/11 01:57:41;;;;;;;11.60;8.03;;;11.40;99.90;;;;;;5012159;28;20567;-79
2023/10/11 02:00:13;;;;;;;10.97;8.33;;;11.40;99.90;;;;;;5013251;28;20207;-79
2023/10/11 02:02:45;;;;;;;11.53;8.03;;;11.40;99.90;;;;;;5013345;28;20223;-79
2023/10/11 02:05:17;;;;;;;10.50;7.93;;;11.40;99.90;;;;;;5013109;28;20208;-79
2023/10/11 02:07:44;;;;;;;9.70;7.90;;;11.40;99.90;;;;;;5013004;28;20670;-79
2023/10/11 02:10:12;;;;;;;13.30;8.67;;;11.40;99.90;;;;;;5014100;28;20749;-79
2023/10/11 02:12:45;;;;;;;11.53;8.27;;;11.40;99.90;;;;;;5013435;28;20652;-79
2023/10/11 02:15:21;;;;;;;11.27;8.67;;;11.40;99.90;;;;;;5012943;28;20336;-79
2023/10/11 02:17:50;;;;;;;9.80;8.70;;;11.40;99.90;;;;;;5012923;28;20238;-79
2023/10/11 02:20:20;;;;;;;12.00;9.23;;;11.40;99.90;;;;;;5012425;28;20226;-78
2023/10/11 02:22:50;;;;;;;10.07;8.90;;;11.40;99.90;;;;;;5014476;28;20280;-78
2023/10/11 02:25:17;;;;;;;10.80;9.70;;;11.40;99.90;;;;;;5014156;28;20198;-79
2023/10/11 02:27:45;;;;;;;10.23;8.50;;;11.40;99.90;;;;;;5014390;28;20199;-79
2023/10/11 02:30:14;;;;;;;11.80;9.63;;;11.40;99.90;;;;;;5013585;28;20222;-79
2023/10/11 02:32:44;;;;;;;10.87;9.03;;;11.40;99.90;;;;;;5012201;28;20729;-78
2023/10/11 02:35:13;;;;;;;9.57;8.57;;;11.50;99.90;;;;;;5012094;28;20249;-79
2023/10/11 02:37:40;;;;;;;12.87;8.70;;;11.50;99.90;;;;;;5012209;28;20203;-78
2023/10/11 02:40:09;;;;;;;9.60;7.10;;;11.50;99.90;;;;;;5013145;28;20254;-79
2023/10/11 02:42:36;;;;;;;9.03;5.80;;;11.50;99.90;;;;;;5013162;28;20242;-78
2023/10/11 02:45:07;;;;;;;8.53;6.07;;;11.60;99.90;;;;;;5011625;28;20195;-78
2023/10/11 02:47:35;;;;;;;10.37;8.37;;;11.60;99.90;;;;;;5011612;28;20587;-78
2023/10/11 02:50:07;;;;;;;9.90;8.73;;;11.60;99.90;;;;;;5011553;28;20206;-79
2023/10/11 02:52:36;;;;;;;8.67;7.83;;;11.60;99.90;;;;;;5007140;28;20229;-84
2023/10/11 02:55:17;;;;;;;7.97;6.57;;;11.70;99.90;;;;;;5013522;28;20223;-81
2023/10/11 02:57:44;;;;;;;8.23;7.20;;;11.70;99.90;;;;;;5007737;28;20199;-84
2023/10/11 03:00:22;;;;;;;9.27;7.67;;;11.70;99.90;;;;;;5014648;28;20198;-84
2023/10/11 03:02:54;;;;;;;9.27;8.33;;;11.70;99.90;;;;;;5008688;28;20217;-84
2023/10/11 03:05:27;;;;;;;8.40;7.50;;;11.70;99.90;;;;;;5010747;28;20560;-84
2023/10/11 03:08:14;;;;;;;7.70;6.97;;;11.70;99.90;;;;;;5014217;28;20195;-83
2023/10/11 03:10:52;;;;;;;8.37;7.57;;;11.70;99.90;;;;;;5022975;28;20578;-83
2023/10/11 03:13:24;;;;;;;8.67;7.87;;;11.70;99.90;;;;;;5012584;28;20225;-84
2023/10/11 03:15:55;;;;;;;8.40;7.60;;;11.70;99.90;;;;;;5011464;28;20249;-83
2023/10/11 03:18:27;;;;;;;8.23;7.43;;;11.70;99.90;;;;;;5012099;28;20257;-83
2023/10/11 03:21:07;;;;;;;7.50;6.80;;;11.60;99.90;;;;;;5012938;28;20280;-83
2023/10/11 03:23:42;;;;;;;10.43;7.43;;;11.60;99.90;;;;;;5027854;28;20222;-81
2023/10/11 03:26:16;;;;;;;10.43;8.53;;;11.60;99.90;;;;;;5012015;28;20218;-82
2023/10/11 03:28:44;;;;;;;11.50;8.60;;;11.50;99.90;;;;;;5012631;28;20207;-81
2023/10/11 03:31:13;;;;;;;9.27;8.33;;;11.50;99.90;;;;;;5014216;28;20204;-81
2023/10/11 03:33:41;;;;;;;9.07;8.10;;;11.50;99.90;;;;;;5011433;28;20286;-81
2023/10/11 03:36:17;;;;;;;9.80;8.40;;;11.40;99.90;;;;;;5007550;28;20219;-77
2023/10/11 03:38:51;;;;;;;9.50;8.50;;;11.30;99.90;;;;;;5010879;28;20235;-76
2023/10/11 03:41:25;;;;;;;10.87;7.83;;;11.30;99.90;;;;;;5011170;28;20198;-76
2023/10/11 03:43:54;;;;;;;11.83;8.43;;;11.30;99.90;;;;;;5005016;28;20225;-76
2023/10/11 03:46:28;;;;;;;10.50;8.20;;;11.30;99.90;;;;;;5011062;28;20276;-76
2023/10/11 03:49:02;;;;;;;13.47;8.03;;;11.20;99.90;;;;;;5010962;28;20210;-76
2023/10/11 03:51:29;;;;;;;9.23;6.60;;;11.20;99.90;;;;;;5010997;28;20277;-76
2023/10/11 03:53:56;;;;;;;9.80;6.73;;;11.10;99.90;;;;;;5010790;28;20214;-76
2023/10/11 03:56:23;;;;;;;10.37;8.50;;;11.10;99.90;;;;;;5009608;28;20203;-76
2023/10/11 03:58:50;;;;;;;12.23;9.23;;;11.10;99.90;;;;;;5011084;28;20658;-76
2023/10/11 04:01:24;;;;;;;14.87;8.67;;;11.10;99.90;;;;;;5010948;28;20574;-76
2023/10/11 04:03:52;;;;;;;10.60;9.30;;;11.00;99.90;;;;;;5010227;28;20287;-77
2023/10/11 04:06:20;;;;;;;11.77;9.57;;;11.00;99.90;;;;;;5011558;28;20256;-77
2023/10/11 04:08:54;;;;;;;11.50;10.30;;;11.00;99.90;;;;;;5009877;28;20295;-77
2023/10/11 04:11:30;;;;;;;14.33;10.93;;;10.90;99.90;;;;;;5010974;28;20267;-76
2023/10/11 04:13:58;;;;;;;10.43;9.30;;;10.90;99.90;;;;;;5009790;28;20641;-77
2023/10/11 04:16:28;;;;;;;15.20;10.63;;;10.90;99.90;;;;;;5011389;28;20329;-76
2023/10/11 04:19:01;;;;;;;10.67;8.27;;;10.90;99.90;;;;;;5009739;28;20198;-76
2023/10/11 04:21:39;;;;;;;9.37;5.70;;;10.90;99.90;;;;;;5012364;28;20198;-77
2023/10/11 04:24:07;;;;;;;11.20;9.50;;;10.90;99.90;;;;;;5013839;28;20306;-77
2023/10/11 04:26:36;;;;;;;11.87;9.80;;;10.90;99.90;;;;;;5007059;28;20198;-76
2023/10/11 04:29:15;;;;;;;12.00;10.33;;;10.90;99.90;;;;;;5015336;28;20240;-77
2023/10/11 04:31:55;;;;;;;12.63;10.10;;;10.90;99.90;;;;;;5007741;28;20193;-76
2023/10/11 04:34:31;;;;;;;10.60;6.67;;;10.90;99.90;;;;;;5014735;28;20722;-77
2023/10/11 04:37:00;;;;;;;11.00;6.50;;;10.90;99.90;;;;;;5014819;28;20229;-76
2023/10/11 04:39:33;;;;;;;11.33;7.23;;;10.90;99.90;;;;;;5013675;28;20203;-76
2023/10/11 04:42:02;;;;;;;9.53;6.00;;;10.90;99.90;;;;;;5014151;28;20202;-76
2023/10/11 04:44:35;;;;;;;9.37;6.63;;;10.80;99.90;;;;;;5012751;28;20671;-76
2023/10/11 04:47:02;;;;;;;10.73;6.93;;;10.80;99.90;;;;;;5014378;28;20208;-76
2023/10/11 04:49:30;;;;;;;11.67;10.50;;;10.80;99.90;;;;;;5012330;28;20215;-76
2023/10/11 04:51:57;;;;;;;11.10;6.50;;;10.70;99.90;;;;;;5012678;28;20684;-76
2023/10/11 04:54:35;;;;;;;9.67;7.23;;;10.70;99.90;;;;;;5012132;28;20237;-76
2023/10/11 04:57:07;;;;;;;10.50;7.63;;;10.70;99.90;;;;;;5012694;28;20288;-76
2023/10/11 04:59:36;;;;;;;11.33;9.20;;;10.60;99.90;;;;;;5015944;28;20262;-77
2023/10/11 05:02:11;;;;;;;11.37;8.73;;;10.60;99.90;;;;;;5016401;28;20280;-77
2023/10/11 05:04:44;;;;;;;12.10;9.57;;;10.60;99.90;;;;;;5008397;28;20193;-77
2023/10/11 05:07:13;;;;;;;11.70;6.40;;;10.60;99.90;;;;;;5015585;28;20235;-77
2023/10/11 05:09:40;;;;;;;12.07;7.83;;;10.60;99.90;;;;;;5004455;28;20248;-76
2023/10/11 05:12:09;;;;;;;11.07;6.83;;;10.60;99.90;;;;;;5013605;28;20201;-76
2023/10/11 05:14:40;;;;;;;10.33;7.13;;;10.60;99.90;;;;;;5011966;28;20208;-76
2023/10/11 05:17:18;;;;;;;12.17;6.77;;;10.50;99.90;;;;;;5013647;28;20679;-76
2023/10/11 05:19:56;;;;;;;13.17;7.63;;;10.50;99.90;;;;;;5006552;28;20199;-76
2023/10/11 05:22:29;;;;;;;11.37;8.70;;;10.50;99.90;;;;;;5013241;28;20217;-76
2023/10/11 05:27:47;;;;;;;12.83;10.47;;;10.40;99.90;;;;;;5003540;28;20726;-76
2023/10/11 05:30:26;;;;;;;14.33;10.70;;;10.40;99.90;;;;;;5013127;28;20202;-76
2023/10/11 05:32:58;;;;;;;12.93;10.03;;;10.40;99.90;;;;;;5006846;28;20225;-76
2023/10/11 05:51:56;;;;;;;12.17;6.90;;;10.70;99.90;;;;;;5006305;28;20258;-76
2023/10/11 05:54:33;;;;;;;10.87;9.00;;;10.70;99.90;;;;;;5011446;28;20520;-76
2023/10/11 05:57:03;;;;;;;13.77;8.83;;;10.70;99.90;;;;;;5012469;28;20193;-76
2023/10/11 05:59:32;;;;;;;13.90;7.37;;;10.80;99.90;;;;;;5012305;28;20744;-76
2023/10/11 06:01:59;;;;;;;15.03;7.60;;;10.70;99.90;;;;;;5012619;28;20204;-76
2023/10/11 06:04:26;;;;;;;17.47;10.63;;;10.70;99.90;;;;;;5012570;28;20205;-76
2023/10/11 06:06:57;;;;;;;11.37;10.07;;;10.70;99.90;;;;;;5011205;28;20599;-76
2023/10/11 06:09:26;;;;;;;15.40;8.80;;;10.80;99.90;;;;;;5011921;28;20205;-76
2023/10/11 06:11:53;;;;;;;11.90;6.97;;;10.80;99.90;;;;;;5012330;28;20274;-76
2023/10/11 06:14:21;;;;;;;12.97;6.63;;;10.80;99.90;;;;;;5010949;28;20198;-77
2023/10/11 06:16:56;;;;;;;11.67;8.87;;;10.90;99.90;;;;;;5009561;28;20238;-80
2023/10/11 06:19:26;;;;;;;11.23;6.83;;;10.90;99.90;;;;;;5010169;28;20205;-82
2023/10/11 06:21:59;;;;;;;10.80;9.07;;;11.00;99.90;;;;;;5009445;28;20200;-81
2023/10/11 06:24:30;;;;;;;13.90;9.47;;;11.00;99.90;;;;;;5015437;28;20198;-81
2023/10/11 06:26:56;;;;;;;14.70;10.40;;;11.10;99.90;;;;;;5009868;28;20260;-81
2023/10/11 06:29:24;;;;;;;12.47;9.13;;;11.30;99.90;;;;;;5014095;28;20219;-81
2023/10/11 06:31:53;;;;;;;11.20;9.57;;;11.40;99.90;;;;;;5014234;28;20222;-82
2023/10/11 06:34:25;;;;;;;10.80;9.37;;;11.50;99.90;;;;;;5013912;28;20673;-81
2023/10/11 06:36:55;;;;;;;14.37;7.90;;;11.60;99.90;;;;;;5014778;28;20222;-83
2023/10/11 06:42:23;;;;;;;11.47;9.37;;;11.80;99.90;;;;;;4975850;28;20606;-82
2023/10/11 06:44:51;;;;;;;10.10;7.90;;;12.00;99.90;;;;;;5006232;28;20206;-83
2023/10/11 06:47:19;;;;;;;11.27;6.93;;;12.20;99.90;;;;;;5018908;28;20264;-82
2023/10/11 06:49:53;;;;;;;12.73;8.60;;;12.40;99.90;;;;;;5016754;28;20196;-82
2023/10/11 06:52:26;;;;;;;8.50;5.73;;;12.70;99.90;;;;;;5017338;28;20258;-81
2023/10/11 06:57:51;;;;;;;10.43;5.80;;;13.20;99.90;;;;;;5077884;27;20597;-83
2023/10/11 07:00:23;;;;;;;12.13;10.77;;;13.60;99.90;;;;;;5084018;28;20664;-84
2023/10/11 07:02:52;;;;;;;10.80;8.63;;;13.80;99.90;;;;;;5076314;28;20226;-84
2023/10/11 07:05:20;;;;;;;13.73;8.87;;;14.00;99.90;;;;;;5076614;28;20259;-84
2023/10/11 07:07:52;;;;;;;13.70;9.30;;;14.10;99.90;;;;;;5070543;28;20207;-84
2023/10/11 07:10:32;;;;;;;9.73;6.23;;;14.10;99.90;;;;;;5066672;28;20208;-83
2023/10/11 07:13:05;;;;;;;12.17;8.30;;;14.10;99.90;;;;;;5067552;28;20274;-84
2023/10/11 07:15:40;;;;;;;10.63;7.40;;;14.20;99.90;;;;;;5061184;28;20294;-83
2023/10/11 07:18:10;;;;;;;10.03;6.77;;;14.30;99.90;;;;;;5067736;28;20799;-83
2023/10/11 07:20:58;;;;;;;11.63;8.77;;;14.60;99.90;;;;;;5079622;28;20200;-84
2023/10/11 07:23:35;;;;;;;11.70;8.97;;;14.80;99.90;;;;;;5062999;28;20231;-83
2023/10/11 07:26:23;;;;;;;12.73;6.40;;;15.30;99.90;;;;;;5073070;28;20203;-84
2023/10/11 07:28:52;;;;;;;14.17;10.27;;;15.70;99.90;;;;;;5064186;28;20243;-84
2023/10/11 07:31:19;;;;;;;9.27;6.17;;;16.20;99.90;;;;;;5063360;28;20249;-84
2023/10/11 07:33:49;;;;;;;14.00;10.73;;;16.70;99.90;;;;;;5069393;28;20219;-84
2023/10/11 07:36:18;;;;;;;14.93;9.40;;;17.00;99.90;;;;;;5058548;28;20233;-85
2023/10/11 07:38:54;;;;;;;12.07;10.83;;;17.30;99.90;;;;;;5060244;28;20315;-84
2023/10/11 07:41:24;;;;;;;10.10;6.27;;;17.60;99.90;;;;;;5077512;28;20671;-85
2023/10/11 07:43:55;;;;;;;12.27;11.00;;;17.90;99.90;;;;;;5060771;28;20220;-83
2023/10/11 07:46:23;;;;;;;12.27;9.07;;;18.10;99.90;;;;;;5058441;28;20292;-85
2023/10/11 07:48:56;;;;;;;11.83;10.27;;;18.30;99.90;;;;;;5060516;28;20264;-85
2023/10/11 07:51:25;;;;;;;11.50;10.33;;;18.40;99.90;;;;;;5063534;28;20250;-85
2023/10/11 07:53:52;;;;;;;11.57;8.00;;;18.80;99.90;;;;;;5067120;28;20227;-85
2023/10/11 07:56:20;;;;;;;14.27;5.87;;;19.10;99.90;;;;;;5066045;28;20233;-85
2023/10/11 07:58:47;;;;;;;10.27;9.17;;;19.40;99.90;;;;;;5079468;28;20210;-85
2023/10/11 08:01:24;;;;;;;13.60;8.63;;;19.70;99.90;;;;;;5082678;28;20206;-85
2023/10/11 08:03:52;;;;;;;11.43;10.33;;;20.00;99.90;;;;;;5064474;28;20845;-85
2023/10/11 08:06:24;;;;;;;10.50;6.80;;;20.10;99.90;;;;;;5064216;28;20257;-85
2023/10/11 08:08:52;;;;;;;12.80;10.10;;;20.30;99.90;;;;;;5054184;28;20611;-85
2023/10/11 08:11:20;;;;;;;8.50;5.70;;;20.50;99.90;;;;;;5054886;28;20192;-86
2023/10/11 08:13:49;;;;;;;10.90;9.70;;;20.70;99.90;;;;;;5063600;28;20219;-86
2023/10/11 08:16:18;;;;;;;13.20;6.73;;;20.90;99.90;;;;;;5067983;28;20218;-86
2023/10/11 08:18:51;;;;;;;11.77;9.13;;;21.00;99.90;;;;;;5071460;28;20624;-84
2023/10/11 08:21:18;;;;;;;15.83;8.93;;;21.20;99.90;;;;;;5045166;28;20199;-83
2023/10/11 08:23:50;;;;;;;12.57;8.63;;;21.30;99.90;;;;;;5049834;28;20226;-85
2023/10/11 08:26:20;;;;;;;10.43;5.77;;;21.50;99.90;;;;;;5048593;28;20192;-84
2023/10/11 08:28:51;;;;;;;11.93;7.10;;;21.60;99.90;;;;;;5047123;28;20203;-86
2023/10/11 08:31:29;;;;;;;13.73;9.03;;;21.50;99.90;;;;;;5060620;28;20245;-84
2023/10/11 08:33:56;;;;;;;9.90;8.90;;;21.50;99.90;;;;;;5044846;28;20444;-84
2023/10/11 08:36:23;;;;;;;11.50;6.00;;;21.70;99.90;;;;;;5050091;28;20445;-84
2023/10/11 08:38:50;;;;;;;9.07;5.33;;;21.80;99.90;;;;;;5053363;28;20199;-83
2023/10/11 08:41:18;;;;;;;12.23;5.93;;;22.00;99.90;;;;;;5052962;28;20214;-84
2023/10/11 08:43:48;;;;;;;15.20;6.17;;;22.10;99.90;;;;;;5052928;28;20273;-84
2023/10/11 08:46:18;;;;;;;9.73;5.63;;;22.20;99.90;;;;;;5048136;28;20662;-84
2023/10/11 08:48:50;;;;;;;10.47;5.27;;;22.30;99.90;;;;;;5051538;28;20199;-83
2023/10/11 08:51:21;;;;;;;11.57;8.20;;;22.40;99.90;;;;;;5047541;28;20219;-84
2023/10/11 08:53:53;;;;;;;14.50;12.17;;;22.60;99.90;;;;;;5050426;28;20736;-84
2023/10/11 08:56:22;;;;;;;12.90;10.07;;;22.80;99.90;;;;;;5044277;28;20297;-84
2023/10/11 08:58:51;;;;;;;10.03;9.03;;;22.80;99.90;;;;;;5046499;28;20223;-84
2023/10/11 09:01:18;;;;;;;10.77;6.03;;;22.90;99.90;;;;;;5053452;28;20199;-83
2023/10/11 09:04:05;;;;;;;13.07;7.33;;;23.00;99.90;;;;;;5042593;28;20224;-83
2023/10/11 09:06:35;;;;;;;13.63;5.17;;;23.00;99.90;;;;;;5047992;28;20219;-84
2023/10/11 09:09:03;;;;;;;12.37;9.00;;;23.20;99.90;;;;;;5045920;28;20237;-83
2023/10/11 09:11:31;;;;;;;10.80;7.33;;;23.30;99.90;;;;;;5045376;28;20206;-83
2023/10/11 09:14:12;;;;;;;8.70;7.30;;;23.50;99.90;;;;;;5049217;28;20229;-84
2023/10/11 09:16:40;;;;;;;10.40;9.00;;;23.70;99.90;;;;;;5049125;28;20577;-83
2023/10/11 09:19:10;;;;;;;9.93;7.13;;;23.80;99.90;;;;;;5053384;28;20650;-83
2023/10/11 09:21:38;;;;;;;10.93;7.20;;;23.90;99.90;;;;;;5049809;28;20437;-84
2023/10/11 09:24:23;;;;;;;15.00;8.97;;;24.10;99.90;;;;;;5044352;28;20211;-83
2023/10/11 09:27:12;;;;;;;9.00;5.03;;;24.10;99.90;;;;;;5047019;28;20625;-84
2023/10/11 09:29:39;;;;;;;9.00;8.10;;;24.10;99.90;;;;;;5051395;28;20204;-83
2023/10/11 09:32:06;;;;;;;7.20;4.90;;;24.10;99.90;;;;;;5045940;28;20206;-84
2023/10/11 09:34:35;;;;;;;10.07;4.70;;;24.20;99.90;;;;;;5047118;28;20195;-84
2023/10/11 09:37:02;;;;;;;9.57;5.00;;;24.30;99.90;;;;;;5049764;28;20708;-82
2023/10/11 09:39:29;;;;;;;9.03;4.53;;;24.20;99.90;;;;;;5058728;28;20198;-82
2023/10/11 09:42:02;;;;;;;9.20;4.27;;;24.30;99.90;;;;;;5070519;28;20201;-82
2023/10/11 09:44:37;;;;;;;9.30;4.27;;;24.30;99.90;;;;;;5067331;28;20770;-82
2023/10/11 09:47:04;;;;;;;9.50;4.90;;;24.20;99.90;;;;;;5067962;28;20224;-81
2023/10/11 09:49:41;;;;;;;9.47;5.97;;;24.10;99.90;;;;;;5054998;28;20620;-83
2023/10/11 09:52:09;;;;;;;8.47;6.70;;;24.20;99.90;;;;;;5046503;28;20199;-83
2023/10/11 09:54:38;;;;;;;13.00;6.17;;;24.20;99.90;;;;;;5055956;28;20208;-83
2023/10/11 09:57:15;;;;;;;8.67;6.53;;;24.10;99.90;;;;;;5061517;28;20267;-83
2023/10/11 09:59:47;;;;;;;7.97;6.13;;;24.20;99.90;;;;;;5058289;28;20755;-82
2023/10/11 10:02:20;;;;;;;10.23;6.07;;;24.20;99.90;;;;;;5059610;28;20218;-83
2023/10/11 10:04:58;;;;;;;8.30;6.00;;;24.10;99.90;;;;;;5060539;28;20203;-83
2023/10/11 10:07:32;;;;;;;13.23;6.77;;;24.10;99.90;;;;;;5065078;28;20233;-82
2023/10/11 10:10:00;;;;;;;10.30;6.60;;;24.10;99.90;;;;;;5067119;28;20293;-82
2023/10/11 10:12:33;;;;;;;9.17;6.27;;;24.00;99.90;;;;;;5058891;28;20210;-83
2023/10/11 10:15:07;;;;;;;9.43;5.57;;;24.00;99.90;;;;;;5065560;28;20198;-83
2023/10/11 10:17:34;;;;;;;7.80;5.27;;;24.00;99.90;;;;;;5062883;28;20198;-82
2023/10/11 10:20:41;;;;;;;9.87;6.90;;;23.90;99.90;;;;;;5058775;28;20215;-82
2023/10/11 10:23:29;;;;;;;9.13;6.77;;;23.90;99.90;;;;;;5057582;28;20637;-83
2023/10/11 10:26:43;;;;;;;14.93;6.27;;;23.90;99.90;;;;;;5059736;28;20204;-83
2023/10/11 10:29:13;;;;;;;7.43;6.27;;;24.00;99.90;;;;;;5049656;28;20236;-83
2023/10/11 10:32:08;;;;;;;6.80;5.63;;;24.00;99.90;;;;;;5068127;28;20202;-83
2023/10/11 10:34:35;;;;;;;7.60;6.13;;;24.00;99.90;;;;;;5058208;28;20190;-83
2023/10/11 10:37:06;;;;;;;8.50;7.00;;;23.90;99.90;;;;;;5063219;28;20207;-83
2023/10/11 10:39:46;;;;;;;8.40;6.27;;;23.80;99.90;;;;;;5064785;28;20219;-82
2023/10/11 10:42:16;;;;;;;8.47;4.50;;;23.80;99.90;;;;;;5051968;28;20223;-83
2023/10/11 10:44:51;;;;;;;9.33;7.50;;;23.90;99.90;;;;;;5065920;28;20206;-82
2023/10/11 10:47:28;;;;;;;8.70;7.03;;;23.90;99.90;;;;;;5060745;28;20218;-82
2023/10/11 10:49:55;;;;;;;10.53;7.40;;;23.90;99.90;;;;;;5069826;28;20216;-82
2023/10/11 10:52:25;;;;;;;11.23;8.03;;;23.90;99.90;;;;;;5069128;28;20210;-82
2023/10/11 10:55:14;;;;;;;12.60;4.70;;;24.00;99.90;;;;;;5062644;28;20206;-82
2023/10/11 10:57:41;;;;;;;7.73;4.43;;;24.00;99.90;;;;;;5060303;28;20298;-82
2023/10/11 11:00:20;;;;;;;9.27;4.40;;;23.90;99.90;;;;;;5060064;28;20274;-83
2023/10/11 11:02:47;;;;;;;6.53;4.03;;;23.90;99.90;;;;;;5056432;28;20237;-82
2023/10/11 11:05:14;;;;;;;6.13;3.60;;;23.90;99.90;;;;;;5053011;28;20636;-82
2023/10/11 11:07:47;;;;;;;7.70;4.23;;;24.00;99.90;;;;;;5063365;28;20220;-82
2023/10/11 11:10:19;;;;;;;7.30;4.57;;;23.90;99.90;;;;;;5057992;28;20191;-82
2023/10/11 11:12:46;;;;;;;11.20;4.80;;;24.00;99.90;;;;;;5065794;28;20218;-81
2023/10/11 11:15:20;;;;;;;7.30;4.67;;;24.00;99.90;;;;;;5059096;28;20191;-82
2023/10/11 11:17:48;;;;;;;9.23;4.53;;;24.00;99.90;;;;;;5071101;28;20205;-81
2023/10/11 11:20:15;;;;;;;14.03;5.23;;;23.90;99.90;;;;;;5065144;28;20198;-82
2023/10/11 11:22:45;;;;;;;7.23;3.70;;;23.90;99.90;;;;;;5062376;28;20288;-82
2023/10/11 11:25:18;;;;;;;6.30;4.10;;;23.90;99.90;;;;;;5066204;28;20202;-81
2023/10/11 11:27:48;;;;;;;7.70;4.03;;;23.90;99.90;;;;;;5044093;28;20239;-82
2023/10/11 11:30:29;;;;;;;8.30;7.47;;;23.80;99.90;;;;;;5045912;28;20708;-82
2023/10/11 11:32:55;;;;;;;9.20;7.77;;;23.90;99.90;;;;;;5038218;28;20211;-85
2023/10/11 11:35:28;;;;;;;9.03;7.77;;;23.90;99.90;;;;;;5043891;28;20689;-84
2023/10/11 11:38:01;;;;;;;12.57;5.57;;;23.90;99.90;;;;;;5068799;28;20191;-84
2023/10/11 11:40:30;;;;;;;10.20;4.37;;;24.00;99.90;;;;;;5061392;28;20221;-83
2023/10/11 11:43:01;;;;;;;7.43;4.07;;;24.00;99.90;;;;;;5062954;28;20222;-84
2023/10/11 11:45:35;;;;;;;8.03;4.03;;;24.00;99.90;;;;;;5072422;28;20248;-83
2023/10/11 11:48:05;;;;;;;7.73;4.10;;;24.00;99.90;;;;;;5069143;28;20290;-84
2023/10/11 11:50:33;;;;;;;8.50;3.90;;;24.00;99.90;;;;;;5079662;28;20294;-84
2023/10/11 11:53:00;;;;;;;6.33;3.93;;;24.00;99.90;;;;;;5069979;28;20262;-84
2023/10/11 11:55:26;;;;;;;8.33;4.03;;;24.00;99.90;;;;;;5069113;28;20195;-83
2023/10/11 11:57:54;;;;;;;6.80;3.83;;;24.00;99.90;;;;;;5072236;28;20248;-83
2023/10/11 12:00:38;;;;;;;8.43;4.20;;;24.10;99.90;;;;;;5058245;28;20249;-84
2023/10/11 12:03:06;;;;;;;9.10;4.10;;;24.10;99.90;;;;;;5057640;28;20693;-82
2023/10/11 12:10:22;;;;;;;;;;;;;;;;;;;;;
2023/10/11 12:21:44;;;;;;;5.90;3.70;;;24.30;99.90;;;;;;4952570;29;20209;-83
2023/10/11 12:24:13;;;;;;;7.73;4.20;;;24.40;99.90;;;;;;4958442;28;20327;-79
2023/10/11 12:26:41;;;;;;;7.03;3.87;;;24.40;99.90;;;;;;5005652;28;20219;-80
2023/10/11 12:29:12;;;;;;;10.20;6.50;;;24.40;99.90;;;;;;5056868;28;20218;-80
2023/10/11 12:31:39;;;;;;;7.00;5.03;;;24.40;99.90;;;;;;5070466;28;20700;-80
2023/10/11 12:34:09;;;;;;;8.73;4.17;;;24.40;99.90;;;;;;5065273;28;20701;-80
2023/10/11 12:36:38;;;;;;;7.53;4.00;;;24.40;99.90;;;;;;5065073;28;20194;-80
2023/10/11 12:39:06;;;;;;;6.20;4.13;;;24.40;99.90;;;;;;5065902;28;20204;-79
2023/10/11 12:41:36;;;;;;;11.33;4.23;;;24.40;99.90;;;;;;5067187;28;20242;-79
2023/10/11 12:44:07;;;;;;;8.83;4.10;;;24.50;99.90;;;;;;5063153;28;20216;-80
2023/10/11 12:46:34;;;;;;;9.20;3.87;;;24.50;99.90;;;;;;5071070;28;20198;-80
2023/10/11 12:49:01;;;;;;;11.30;4.93;;;24.50;99.90;;;;;;5069980;28;20218;-79
2023/10/11 12:51:28;;;;;;;7.53;5.43;;;24.60;99.90;;;;;;5064424;28;20213;-80
2023/10/11 12:53:55;;;;;;;6.83;5.27;;;24.60;99.90;;;;;;5061071;28;20677;-80
2023/10/11 12:56:23;;;;;;;7.57;4.23;;;24.60;99.90;;;;;;5045108;28;20207;-80
2023/10/11 12:58:53;;;;;;;7.17;3.73;;;24.60;99.90;;;;;;5066889;28;20203;-80
2023/10/11 13:01:36;;;;;;;5.67;3.77;;;24.60;99.90;;;;;;5068513;28;20186;-80
2023/10/11 13:04:08;;;;;;;7.67;3.83;;;24.60;99.90;;;;;;5064136;28;20220;-80
2023/10/11 13:06:37;;;;;;;6.43;3.57;;;24.60;99.90;;;;;;5061911;28;20689;-80
2023/10/11 13:09:04;;;;;;;7.90;3.90;;;24.60;99.90;;;;;;5070271;28;20214;-80
2023/10/11 13:11:32;;;;;;;8.37;4.20;;;24.60;99.90;;;;;;5062060;28;20260;-80
2023/10/11 13:14:05;;;;;;;6.47;3.40;;;24.70;99.90;;;;;;5070338;28;20642;-80
2023/10/11 13:16:33;;;;;;;8.37;3.67;;;24.70;99.90;;;;;;5066903;28;20565;-80
2023/10/11 13:19:00;;;;;;;7.13;6.43;;;24.70;99.90;;;;;;5068513;28;20191;-80
2023/10/11 13:21:33;;;;;;;6.10;3.63;;;24.70;99.90;;;;;;5068863;28;20647;-80
2023/10/11 13:24:08;;;;;;;8.70;3.80;;;24.70;99.90;;;;;;5064164;28;20619;-80
2023/10/11 13:26:36;;;;;;;5.13;3.50;;;24.80;99.90;;;;;;5058349;28;20580;-80
2023/10/11 13:29:04;;;;;;;6.23;3.40;;;24.70;99.90;;;;;;5060348;28;20693;-80
2023/10/11 13:31:31;;;;;;;10.97;3.83;;;24.80;99.90;;;;;;5073175;28;20240;-80
2023/10/11 13:33:58;;;;;;;7.40;6.60;;;24.80;99.90;;;;;;5067990;28;20221;-80
2023/10/11 13:36:33;;;;;;;5.00;3.50;;;24.80;99.90;;;;;;5060952;28;20626;-79
2023/10/11 13:39:00;;;;;;;5.57;3.47;;;24.80;99.90;;;;;;5066442;28;20210;-78